Flight Track Log - Related Links

Times and Time Zones

All times are in EDT time to prevent confusion due to time zone crossing. See the AAL1459 flight status page for this flight to view local times or setup timezone preferences in your user account.

Time Position Orientation Groundspeed Altitude Reporting Facility
EDT Latitude Longitude Course Direction KTS MPH feet Rate Location/Type
Sun 02:10:23 PM 42.3870 -71.0340 308° West 180 207 1,800  Level FlightAware ADS-B
Sun 02:10:38 PM 42.3940 -71.0500 301° West 204 235 2,200 2,229 Climbing FlightAware ADS-B
Sun 02:10:58 PM 42.4050 -71.0750 301° West 231 266 3,100 3,300 Climbing FlightAware ADS-B
Sun 02:11:38 PM 42.4280 -71.1270 301° West 240 276 5,500 3,164 Climbing FlightAware ADS-B
Sun 02:11:53 PM 42.4370 -71.1450 304° West 247 284 6,000 3,086 Climbing FlightAware ADS-B
Sun 02:12:13 PM 42.4520 -71.1690 310° West 243 280 7,300 3,300 Climbing FlightAware ADS-B
Sun 02:12:33 PM 42.4690 -71.1880 320° Northwest 249 287 8,200 3,200 Climbing FlightAware ADS-B
Sun 02:12:43 PM 42.4830 -71.1930 345° North 264 304 8,900 2,836 Climbing FlightAware ADS-B
Sun 02:13:28 PM 42.5370 -71.2110 346° North 281 323 10,800 2,259 Climbing FlightAware ADS-B
Sun 02:14:08 PM 42.5950 -71.2270 349° North 331 381 12,100 2,625 Climbing FlightAware ADS-B
Sun 02:14:48 PM 42.6570 -71.2430 349° North 332 382 14,300 2,968 Climbing FlightAware ADS-B
Sun 02:15:43 PM 42.7460 -71.2660 349° North 348 400 16,800 2,894 Climbing FlightAware ADS-B
Sun 02:16:13 PM 42.7910 -71.2840 344° North 341 392 18,400 2,954 Climbing FlightAware ADS-B
Sun 02:16:48 PM 42.8360 -71.3240 327° Northwest 330 380 20,000 2,760 Climbing FlightAware ADS-B
Sun 02:17:03 PM 42.8490 -71.3500 304° West 324 373 20,700 2,727 Climbing FlightAware ADS-B
Sun 02:17:43 PM 42.8670 -71.4300 287° West 328 377 22,500 1,971 Climbing FlightAware ADS-B
Sun 02:18:13 PM 42.8670 -71.4870 270° West 339 390 23,000 900 Climbing FlightAware ADS-B
Sun 02:19:03 PM 42.8710 -71.6060 273° West 340 391 23,700 1,200 Climbing FlightAware ADS-B
Sun 02:19:38 PM 42.8770 -71.6800 276° West 348 400 24,700 1,800 Climbing FlightAware ADS-B
Sun 02:20:13 PM 42.8830 -71.7570 276° West 353 406 25,800 1,754 Climbing FlightAware ADS-B
Sun 02:20:43 PM 42.8890 -71.8240 277° West 359 413 26,600 1,553 Climbing FlightAware ADS-B
Sun 02:21:38 PM 42.8990 -71.9490 276° West 368 423 28,000 1,453 Climbing FlightAware ADS-B
Sun 02:22:18 PM 42.9060 -72.0410 276° West 374 430 28,900 1,553 Climbing FlightAware ADS-B
Sun 02:23:03 PM 42.9150 -72.1490 277° West 375 432 30,200 1,800 Climbing FlightAware ADS-B
Sun 02:23:48 PM 42.9230 -72.2520 276° West 371 427 31,600 1,575 Climbing FlightAware ADS-B
Sun 02:24:23 PM 42.9290 -72.3340 276° West 374 430 32,300 1,286 Climbing FlightAware ADS-B
Sun 02:24:58 PM 42.9350 -72.4170 276° West 374 430 33,100 1,477 Climbing FlightAware ADS-B
Sun 02:25:28 PM 42.9410 -72.4870 277° West 372 428 33,900 771 Climbing FlightAware ADS-B
Sun 02:26:08 PM 42.9470 -72.5750 275° West 364 419 34,000 80 Climbing FlightAware ADS-B
Sun 02:26:43 PM 42.9540 -72.6600 276° West 362 417 34,000  Level FlightAware ADS-B
Sun 02:27:23 PM 42.9600 -72.7500 275° West 361 415 34,000  Level FlightAware ADS-B
Sun 02:28:03 PM 42.9670 -72.8400 276° West 362 417 34,000  Level FlightAware ADS-B
Sun 02:28:38 PM 42.9730 -72.9170 276° West 363 418 34,000  Level FlightAware ADS-B
Sun 02:29:28 PM 42.9790 -73.0080 275° West 363 418 34,000  Level FlightAware ADS-B
Sun 02:30:23 PM 42.9870 -73.1220 276° West 363 418 34,000  Level FlightAware ADS-B
Sun 02:30:58 PM 42.9940 -73.2190 276° West 362 417 34,000  Level FlightAware ADS-B
Sun 02:31:43 PM 43.0010 -73.3170 276° West 360 414 34,000  Level FlightAware ADS-B
Sun 02:32:23 PM 43.0070 -73.4050 275° West 358 412 34,000  Level FlightAware ADS-B
Sun 02:32:58 PM 43.0110 -73.4680 275° West 358 412 34,000  Level FlightAware ADS-B
Sun 02:33:28 PM 43.0150 -73.5390 274° West 356 410 34,000  Level FlightAware ADS-B
Sun 02:34:23 PM 43.0230 -73.6520 276° West 356 410 34,000  Level FlightAware ADS-B
Sun 02:35:08 PM 43.0320 -73.7960 275° West 354 407 34,000  Level FlightAware ADS-B
Sun 02:35:48 PM 43.0380 -73.8870 275° West 352 405 34,000  Level FlightAware ADS-B
Sun 02:36:33 PM 43.0440 -73.9840 275° West 352 405 34,000  Level FlightAware ADS-B
Sun 02:37:13 PM 43.0490 -74.0710 275° West 353 406 34,000  Level FlightAware ADS-B
Sun 02:37:43 PM 43.0530 -74.1420 274° West 357 411 34,000  Level FlightAware ADS-B
Sun 02:38:23 PM 43.0590 -74.2280 275° West 357 411 34,000  Level FlightAware ADS-B
Sun 02:39:03 PM 43.0640 -74.3140 275° West 357 411 34,000  Level FlightAware ADS-B
Sun 02:39:33 PM 43.0680 -74.3840 274° West 34,000  Level FlightAware ADS-B
Sun 02:40:58 PM 43.0790 -74.5720 275° West 353 406 34,000  Level FlightAware ADS-B
Sun 02:41:33 PM 43.0830 -74.6440 274° West 353 406 34,000  Level FlightAware ADS-B
Sun 02:42:13 PM 43.0880 -74.7380 274° West 354 407 34,000  Level FlightAware ADS-B
Sun 02:42:58 PM 43.0930 -74.8310 274° West 354 407 34,000  Level FlightAware ADS-B
Sun 02:43:27 PM 43.0950 -74.8997 274° West 355 409 34,000 -621 Level Boston Center
Sun 02:44:25 PM 43.1025 -75.0336 274° West 355 409 33,100 -958 Descending Boston Center
Sun 02:45:26 PM 43.1117 -75.1733 275° West 361 415 32,100 -590 Descending Boston Center
Sun 02:46:27 PM 43.1172 -75.2875 274° West 371 427 31,900 -16 Descending Boston Center
Sun 02:51:43 PM 43.1540 -76.0480 274° West 361 415 32,000 17 Climbing FlightAware ADS-B
Sun 02:52:18 PM 43.1570 -76.1230 273° West 361 415 32,000  Level FlightAware ADS-B
Sun 02:52:53 PM 43.1600 -76.2010 273° West 362 417 32,000  Level FlightAware ADS-B
Sun 02:53:33 PM 43.1610 -76.2930 271° West 364 419 32,000  Level FlightAware ADS-B
Sun 02:54:18 PM 43.1610 -76.3970 270° West 363 418 32,000  Level FlightAware ADS-B
Sun 02:54:58 PM 43.1600 -76.4870 269° West 362 417 32,000  Level FlightAware ADS-B
Sun 02:55:38 PM 43.1600 -76.5790 270° West 361 415 32,000  Level FlightAware ADS-B
Sun 02:56:23 PM 43.1600 -76.6820 270° West 360 414 32,000 -494 Level FlightAware ADS-B
Sun 02:57:03 PM 43.1600 -76.7720 270° West 354 407 31,300 -988 Descending FlightAware ADS-B
Sun 02:57:48 PM 43.1590 -76.8740 269° West 353 406 30,600 -918 Descending FlightAware ADS-B
Sun 02:58:28 PM 43.1590 -76.9570 270° West 358 412 30,000 -918 Descending FlightAware ADS-B
Sun 02:59:13 PM 43.1580 -77.0650 269° West 356 410 29,300 -988 Descending FlightAware ADS-B
Sun 02:59:53 PM 43.1570 -77.1550 269° West 355 409 28,600 -975 Descending FlightAware ADS-B
Sun 03:00:33 PM 43.1570 -77.2450 270° West 358 412 28,000 -424 Descending FlightAware ADS-B
Sun 03:01:18 PM 43.1560 -77.3460 269° West 364 419 28,000  Level FlightAware ADS-B
Sun 03:01:58 PM 43.1550 -77.4390 269° West 364 419 28,000  Level FlightAware ADS-B
Sun 03:02:43 PM 43.1540 -77.5430 269° West 365 420 28,000  Level FlightAware ADS-B
Sun 03:03:23 PM 43.1530 -77.6340 269° West 365 420 28,000  Level FlightAware ADS-B
Sun 03:04:03 PM 43.1520 -77.7280 269° West 366 421 28,000  Level FlightAware ADS-B
Sun 03:04:48 PM 43.1500 -77.8320 269° West 367 422 28,000  Level FlightAware ADS-B
Sun 03:05:28 PM 43.1490 -77.9250 269° West 369 425 28,000  Level FlightAware ADS-B
Sun 03:06:08 PM 43.1480 -78.0180 269° West 371 427 28,000  Level FlightAware ADS-B
Sun 03:06:53 PM 43.1460 -78.1230 269° West 372 428 28,000  Level FlightAware ADS-B
Sun 03:07:33 PM 43.1450 -78.2170 269° West 371 427 28,000  Level FlightAware ADS-B
Sun 03:08:18 PM 43.1430 -78.3230 269° West 372 428 28,000  Level FlightAware ADS-B
Sun 03:08:58 PM 43.1420 -78.4170 269° West 372 428 28,000  Level FlightAware ADS-B
Sun 03:09:28 PM 43.1410 -78.4860 269° West 374 430 28,000  Level FlightAware ADS-B
Sun 03:10:08 PM 43.1400 -78.5770 269° West 375 432 28,000  Level FlightAware ADS-B
Sun 03:10:53 PM 43.1390 -78.6880 269° West 376 433 28,000  Level FlightAware ADS-B
Sun 03:11:33 PM 43.1380 -78.7820 269° West 377 434 28,000  Level FlightAware ADS-B
Sun 03:12:13 PM 43.1360 -78.8790 268° West 377 434 28,000  Level FlightAware ADS-B
Sun 03:12:58 PM 43.1350 -78.9850 269° West 378 435 28,000  Level FlightAware ADS-B
Sun 03:13:38 PM 43.1340 -79.0820 269° West 379 436 28,000  Level FlightAware ADS-B
Sun 03:14:23 PM 43.1320 -79.1900 269° West 381 438 28,000  Level FlightAware ADS-B
Sun 03:15:03 PM 43.1300 -79.2850 268° West 383 441 28,000  Level FlightAware ADS-B
Sun 03:15:43 PM 43.1290 -79.3820 269° West 383 441 28,000  Level FlightAware ADS-B
Sun 03:16:28 PM 43.1270 -79.4920 269° West 383 441 28,000  Level FlightAware ADS-B
Sun 03:17:08 PM 43.1250 -79.5890 268° West 383 441 28,000  Level FlightAware ADS-B
Sun 03:17:48 PM 43.1230 -79.6840 268° West 382 440 28,000  Level FlightAware ADS-B
Sun 03:18:33 PM 43.1200 -79.7940 268° West 381 438 28,000  Level FlightAware ADS-B
Sun 03:19:13 PM 43.1180 -79.8900 268° West 381 438 28,000  Level FlightAware ADS-B
Sun 03:19:58 PM 43.1160 -79.9980 269° West 381 438 28,000  Level FlightAware ADS-B
Sun 03:20:38 PM 43.1140 -80.0940 268° West 382 440 28,000  Level FlightAware ADS-B
Sun 03:21:18 PM 43.1110 -80.1910 268° West 383 441 28,000  Level FlightAware ADS-B
Sun 03:22:03 PM 43.1080 -80.3000 268° West 384 442 28,000  Level FlightAware ADS-B
Sun 03:22:48 PM 43.1050 -80.4090 268° West 385 443 28,000  Level FlightAware ADS-B
Sun 03:23:28 PM 43.1030 -80.5060 268° West 385 443 28,000  Level FlightAware ADS-B
Sun 03:24:08 PM 43.1000 -80.6040 268° West 385 443 28,000  Level FlightAware ADS-B
Sun 03:24:48 PM 43.0970 -80.7000 268° West 385 443 28,000  Level FlightAware ADS-B
Sun 03:25:33 PM 43.0940 -80.8090 268° West 384 442 28,000  Level FlightAware ADS-B
Sun 03:26:13 PM 43.0910 -80.9060 268° West 385 443 28,000  Level FlightAware ADS-B
Sun 03:26:53 PM 43.0880 -81.0030 268° West 386 444 28,000  Level FlightAware ADS-B
Sun 03:27:38 PM 43.0840 -81.1130 267° West 385 443 28,000  Level FlightAware ADS-B
Sun 03:28:18 PM 43.0810 -81.2120 268° West 384 442 28,000  Level FlightAware ADS-B
Sun 03:29:03 PM 43.0770 -81.3200 267° West 383 441 28,000  Level FlightAware ADS-B
Sun 03:29:43 PM 43.0740 -81.4100 267° West 383 441 28,000  Level FlightAware ADS-B
Sun 03:30:28 PM 43.0700 -81.5150 267° West 384 442 28,000  Level FlightAware ADS-B
Sun 03:31:08 PM 43.0660 -81.6190 267° West 385 443 28,000  Level FlightAware ADS-B
Sun 03:31:58 PM 43.0620 -81.7320 267° West 386 444 28,000  Level FlightAware ADS-B
Sun 03:32:38 PM 43.0580 -81.8290 267° West 387 445 28,000  Level FlightAware ADS-B
Sun 03:33:28 PM 43.0540 -81.9500 267° West 388 447 28,000  Level FlightAware ADS-B
Sun 03:34:23 PM 43.0480 -82.0850 267° West 389 448 28,000  Level FlightAware ADS-B
Sun 03:35:08 PM 43.0430 -82.1980 267° West 390 449 28,000  Level FlightAware ADS-B
Sun 03:35:48 PM 43.0400 -82.2860 267° West 391 450 28,000  Level FlightAware ADS-B
Sun 03:36:28 PM 43.0340 -82.4170 266° West 391 450 28,000  Level FlightAware ADS-B
Sun 03:37:03 PM 43.0310 -82.4790 266° West 392 451 28,000  Level FlightAware ADS-B
Sun 03:37:53 PM 43.0250 -82.6020 266° West 394 453 28,000  Level FlightAware ADS-B
Sun 03:38:33 PM 43.0210 -82.7020 267° West 396 456 28,000  Level FlightAware ADS-B
Sun 03:39:13 PM 43.0160 -82.8060 266° West 398 458 28,000  Level FlightAware ADS-B
Sun 03:40:03 PM 43.0100 -82.9220 266° West 399 459 28,000  Level FlightAware ADS-B
Sun 03:40:38 PM 43.0060 -83.0130 267° West 400 460 28,000  Level FlightAware ADS-B
Sun 03:41:18 PM 43.0010 -83.1140 266° West 401 461 28,000  Level FlightAware ADS-B
Sun 03:42:08 PM 42.9940 -83.2450 266° West 403 464 28,000  Level FlightAware ADS-B
Sun 03:43:18 PM 42.9830 -83.4450 266° West 401 461 28,000  Level FlightAware ADS-B
Sun 03:44:03 PM 42.9770 -83.5570 266° West 401 461 28,000  Level FlightAware ADS-B
Sun 03:44:43 PM 42.9720 -83.6540 266° West 400 460 28,000  Level FlightAware ADS-B
Sun 03:45:28 PM 42.9650 -83.7690 265° West 401 461 28,000  Level FlightAware ADS-B
Sun 03:46:08 PM 42.9550 -83.8680 262° West 402 463 28,000  Level FlightAware ADS-B
Sun 03:46:48 PM 42.9450 -83.9710 262° West 404 465 28,000  Level FlightAware ADS-B
Sun 03:47:33 PM 42.9340 -84.0850 263° West 405 466 28,000  Level FlightAware ADS-B
Sun 03:48:08 PM 42.9250 -84.1760 262° West 406 467 28,000  Level FlightAware ADS-B
Sun 03:48:53 PM 42.9140 -84.2900 263° West 407 468 28,000  Level FlightAware ADS-B
Sun 03:49:38 PM 42.9030 -84.4010 262° West 407 468 28,000  Level FlightAware ADS-B
Sun 03:50:18 PM 42.8920 -84.5070 262° West 407 468 28,000  Level FlightAware ADS-B
Sun 03:50:58 PM 42.8820 -84.6080 262° West 407 468 28,000  Level FlightAware ADS-B
Sun 03:51:43 PM 42.8700 -84.7190 262° West 408 470 28,000  Level FlightAware ADS-B
Sun 03:52:23 PM 42.8590 -84.8210 262° West 408 470 28,000  Level FlightAware ADS-B
Sun 03:53:08 PM 42.8470 -84.9390 262° West 408 470 28,000  Level FlightAware ADS-B
Sun 03:53:48 PM 42.8360 -85.0390 262° West 408 470 28,000  Level FlightAware ADS-B
Sun 03:54:33 PM 42.8240 -85.1530 262° West 409 471 28,000  Level FlightAware ADS-B
Sun 03:55:13 PM 42.8130 -85.2530 262° West 409 471 28,000  Level FlightAware ADS-B
Sun 03:55:58 PM 42.8010 -85.3710 262° West 409 471 28,000  Level FlightAware ADS-B
Sun 03:56:38 PM 42.7900 -85.4680 261° West 409 471 28,000  Level FlightAware ADS-B
Sun 03:57:18 PM 42.7740 -85.5670 258° West 409 471 28,000  Level FlightAware ADS-B
Sun 03:58:03 PM 42.7530 -85.6830 256° West 410 472 28,000 -71 Level FlightAware ADS-B
Sun 03:58:43 PM 42.7350 -85.7830 256° West 411 473 27,900 -1,200 Descending FlightAware ADS-B
Sun 03:59:23 PM 42.7170 -85.8820 256° West 402 463 26,400 -2,240 Descending FlightAware ADS-B
Sun 03:59:58 PM 42.7020 -85.9650 256° West 397 457 25,100 -2,229 Descending FlightAware ADS-B
Sun 04:00:33 PM 42.6870 -86.0480 256° West 396 456 23,800 -2,400 Descending FlightAware ADS-B
Sun 04:01:23 PM 42.6640 -86.1710 256° West 387 445 21,700 -2,337 Descending FlightAware ADS-B
Sun 04:02:08 PM 42.6450 -86.2770 256° West 375 432 20,100 -1,200 Descending FlightAware ADS-B
Sun 04:02:48 PM 42.6280 -86.3680 256° West 370 426 20,000 -71 Descending FlightAware ADS-B
Sun 04:03:33 PM 42.6090 -86.4660 255° West 372 428 20,000  Level FlightAware ADS-B
Sun 04:04:13 PM 42.5930 -86.5560 256° West 375 432 20,000 -225 Level FlightAware ADS-B
Sun 04:04:53 PM 42.5750 -86.6480 255° West 375 432 19,700 -1,200 Descending FlightAware ADS-B
Sun 04:05:38 PM 42.5540 -86.7470 254° West 366 421 18,300 -2,118 Descending FlightAware ADS-B
Sun 04:06:18 PM 42.5300 -86.8350 250° West 352 405 16,700 -2,250 Descending FlightAware ADS-B
Sun 04:06:58 PM 42.5080 -86.9180 250° West 340 391 15,300 -1,976 Descending FlightAware ADS-B
Sun 04:07:43 PM 42.4880 -86.9940 250° West 327 376 13,900 -1,976 Descending FlightAware ADS-B
Sun 04:08:23 PM 42.4660 -87.0720 249° West 312 359 12,500 -2,047 Descending FlightAware ADS-B
Sun 04:09:08 PM 42.4420 -87.1590 250° West 303 349 11,000 -1,412 Descending FlightAware ADS-B
Sun 04:09:48 PM 42.4250 -87.2230 250° West 305 351 10,500 -635 Descending FlightAware ADS-B
Sun 04:10:33 PM 42.4020 -87.3060 249° West 308 354 10,100 -282 Descending FlightAware ADS-B
Sun 04:11:13 PM 42.3820 -87.3790 250° West 306 352 10,100  Level FlightAware ADS-B
Sun 04:11:53 PM 42.3630 -87.4480 250° West 307 353 10,100  Level FlightAware ADS-B
Sun 04:12:38 PM 42.3400 -87.5270 249° West 305 351 10,100  Level FlightAware ADS-B
Sun 04:12:53 PM 42.3220 -87.5520 226° Southwest 307 353 10,100  Level FlightAware ADS-B
Sun 04:13:18 PM 42.2930 -87.5820 217° Southwest 307 353 10,100  Level FlightAware ADS-B
Sun 04:14:03 PM 42.2430 -87.6360 219° Southwest 308 354 10,100  Level FlightAware ADS-B
Sun 04:14:43 PM 42.2010 -87.6800 218° Southwest 268 308 10,100 -369 Level FlightAware ADS-B
Sun 04:15:08 PM 42.1770 -87.7040 217° Southwest 255 293 9,700 -1,080 Descending FlightAware ADS-B
Sun 04:15:33 PM 42.1560 -87.7270 219° Southwest 250 288 9,200 -1,333 Descending FlightAware ADS-B
Sun 04:15:53 PM 42.1370 -87.7470 218° Southwest 248 285 8,700 -840 Descending FlightAware ADS-B
Sun 04:16:23 PM 42.1110 -87.7740 218° Southwest 229 264 8,500 -360 Descending FlightAware ADS-B
Sun 04:16:43 PM 42.0960 -87.7950 226° Southwest 217 250 8,400 -600 Descending FlightAware ADS-B
Sun 04:17:03 PM 42.0920 -87.8210 258° West 215 247 8,100 -960 Descending FlightAware ADS-B
Sun 04:17:33 PM 42.0920 -87.8570 270° West 211 243 7,600 -1,091 Descending FlightAware ADS-B
Sun 04:17:58 PM 42.0920 -87.8890 270° West 213 245 7,100 -600 Descending FlightAware ADS-B
Sun 04:18:23 PM 42.0920 -87.9210 270° West 215 247 7,100  Level FlightAware ADS-B
Sun 04:18:43 PM 42.0920 -87.9500 270° West 215 247 7,100  Level FlightAware ADS-B
Sun 04:19:08 PM 42.0920 -87.9850 270° West 215 247 7,100  Level FlightAware ADS-B
Sun 04:19:23 PM 42.0920 -88.0070 270° West 215 247 7,100 -267 Level FlightAware ADS-B
Sun 04:19:53 PM 42.0920 -88.0440 270° West 212 244 6,900 -1,029 Descending FlightAware ADS-B
Sun 04:20:33 PM 42.0920 -88.0980 270° West 211 243 5,900 -1,418 Descending FlightAware ADS-B
Sun 04:20:48 PM 42.0910 -88.1150 265° West 204 235 5,600 -1,200 Descending FlightAware ADS-B
Sun 04:21:13 PM 42.0850 -88.1440 254° West 194 223 5,100 -857 Descending FlightAware ADS-B
Sun 04:21:23 PM 42.0820 -88.1590 255° West 196 226 5,100  Level FlightAware ADS-B
Sun 04:21:43 PM 42.0780 -88.1790 255° West 196 226 5,100  Level FlightAware ADS-B
Sun 04:22:13 PM 42.0700 -88.2170 254° West 196 226 5,100  Level FlightAware ADS-B
Sun 04:22:38 PM 42.0640 -88.2460 254° West 196 226 5,100  Level FlightAware ADS-B
Sun 04:23:08 PM 42.0560 -88.2810 253° West 195 224 5,100  Level FlightAware ADS-B
Sun 04:23:23 PM 42.0490 -88.2930 232° Southwest 188 216 5,100  Level FlightAware ADS-B
Sun 04:23:28 PM 42.0410 -88.2960 196° South 190 219 5,100  Level FlightAware ADS-B
Sun 04:23:38 PM 42.0380 -88.2960 180° South 193 222 5,100  Level FlightAware ADS-B
Sun 04:24:08 PM 42.0090 -88.2900 171° South 195 224 5,100  Level FlightAware ADS-B
Sun 04:24:38 PM 41.9850 -88.2830 168° South 194 223 5,100  Level FlightAware ADS-B
Sun 04:24:53 PM 41.9750 -88.2630 124° Southeast 203 234 5,100  Level FlightAware ADS-B
Sun 04:25:18 PM 41.9690 -88.2340 106° East 193 222 5,100  Level FlightAware ADS-B
Sun 04:25:28 PM 41.9680 -88.2250 98° East 194 223 5,100 -933 Level FlightAware ADS-B
Sun 04:26:03 PM 41.9680 -88.1810 90° East 192 221 4,400 -1,000 Descending FlightAware ADS-B
Sun 04:26:28 PM 41.9680 -88.1510 90° East 183 211 4,100 -960 Descending FlightAware ADS-B
Sun 04:26:53 PM 41.9680 -88.1230 90° East 176 203 3,600 -923 Descending FlightAware ADS-B
Sun 04:27:33 PM 41.9690 -88.0870 88° East 152 175 3,100 -771 Descending FlightAware ADS-B
Sun 04:28:03 PM 41.9690 -88.0570 90° East 148 170 2,700 -764 Descending FlightAware ADS-B
Sun 04:28:28 PM 41.9690 -88.0370 90° East 146 168 2,400 -800 Descending FlightAware ADS-B
Sun 04:29:03 PM 41.9690 -88.0030 90° East 144 166 1,900 -800 Descending FlightAware ADS-B
Sun 04:29:58 PM 41.9690 -87.9560 90° East 143 165 1,200 -776 Descending FlightAware ADS-B
Sun 04:30:28 PM 41.9690 -87.9280 90° East 142 163 800 -600 Descending FlightAware ADS-B
Sun 04:30:38 PM 41.9690 -87.9220 90° East 138 159 800  Level FlightAware ADS-B

Login

Don't have an account? Register now (free) for customized features, flight alerts, and more!